Time;durP1;ratioP1;P1;durP2;ratioP2;P2;SDS_P1;SDS_P2;PMS_P1;PMS_P2;Temp;Humidity;BMP_temperature;BMP_pressure;BME280_temperature;BME280_humidity;BME280_pressure;Samples;Min_cycle;Max_cycle;Signal;HPM_P1;HPM_P2
2022/06/11 00:01:54;;;;;;;13.45;4.57;;;16.00;99.90;;;;;;5053203;28;20080;-49
2022/06/11 00:04:41;;;;;;;10.63;3.78;;;16.00;99.90;;;;;;5051759;28;20048;-49
2022/06/11 00:07:15;;;;;;;11.95;3.80;;;17.20;99.90;;;;;;5035464;28;20061;-49
2022/06/11 00:09:43;;;;;;;8.98;4.15;;;15.80;99.90;;;;;;5018982;28;20090;-50
2022/06/11 00:12:10;;;;;;;10.98;4.28;;;15.90;99.90;;;;;;5034149;28;20047;-47
2022/06/11 00:14:37;;;;;;;8.32;3.85;;;15.80;99.90;;;;;;5069482;28;20115;-49
2022/06/11 00:17:06;;;;;;;9.55;4.82;;;15.70;99.90;;;;;;5035047;28;20504;-47
2022/06/11 00:19:32;;;;;;;9.88;4.07;;;15.40;99.90;;;;;;5042862;28;20056;-50
2022/06/11 00:21:57;;;;;;;9.77;4.03;;;15.70;99.90;;;;;;5052464;28;20741;-53
2022/06/11 00:24:25;;;;;;;7.72;4.40;;;15.30;99.90;;;;;;5055416;28;20040;-48
2022/06/11 00:26:53;;;;;;;11.77;4.40;;;15.40;99.90;;;;;;5036967;28;20041;-49
2022/06/11 00:29:22;;;;;;;7.43;3.95;;;15.50;99.90;;;;;;5052483;28;20040;-48
2022/06/11 00:31:47;;;;;;;11.35;4.15;;;15.90;99.90;;;;;;5052442;28;20465;-49
2022/06/11 00:34:16;;;;;;;9.00;4.72;;;15.30;99.90;;;;;;5053850;28;20273;-48
2022/06/11 00:36:43;;;;;;;8.75;4.07;;;17.20;99.90;;;;;;5087728;28;20050;-51
2022/06/11 00:39:13;;;;;;;12.00;4.78;;;15.20;99.90;;;;;;5052293;28;20045;-48
2022/06/11 00:41:44;;;;;;;10.70;4.28;;;14.90;99.90;;;;;;5035574;28;20098;-49
2022/06/11 00:44:10;;;;;;;10.50;4.45;;;15.00;99.90;;;;;;5066890;28;20041;-53
2022/06/11 00:47:22;;;;;;;10.95;4.65;;;14.90;99.90;;;;;;5053444;28;20062;-48
2022/06/11 00:49:57;;;;;;;12.93;4.72;;;15.10;99.90;;;;;;5050823;28;20040;-50
2022/06/11 00:52:30;;;;;;;11.02;4.53;;;15.10;99.90;;;;;;5051492;28;20185;-47
2022/06/11 00:55:22;;;;;;;15.40;4.47;;;15.20;99.90;;;;;;5035186;28;20090;-50
2022/06/11 00:58:02;;;;;;;11.23;4.03;;;15.10;99.90;;;;;;4975368;28;20057;-51
2022/06/11 01:00:40;;;;;;;11.48;3.70;;;15.00;99.90;;;;;;4991272;28;20941;-49
2022/06/11 01:03:10;;;;;;;10.25;3.33;;;15.70;99.90;;;;;;4990242;28;20050;-49
2022/06/11 01:05:41;;;;;;;9.90;3.60;;;15.20;99.90;;;;;;5007387;28;20109;-47
2022/06/11 01:08:40;;;;;;;12.02;3.33;;;16.00;99.90;;;;;;5007958;28;20133;-49
2022/06/11 01:11:37;;;;;;;10.82;3.30;;;15.00;99.90;;;;;;4974689;28;20076;-50
2022/06/11 01:14:21;;;;;;;12.38;3.13;;;14.80;99.90;;;;;;4989956;28;20120;-49
2022/06/11 01:17:08;;;;;;;13.55;2.92;;;15.00;99.90;;;;;;5007499;28;20073;-48
2022/06/11 01:19:56;;;;;;;10.93;2.80;;;15.00;99.90;;;;;;4973488;28;20185;-49
2022/06/11 01:22:44;;;;;;;12.27;2.88;;;14.90;99.90;;;;;;4973590;28;20076;-48
2022/06/11 01:25:44;;;;;;;11.30;2.75;;;14.80;99.90;;;;;;4990630;28;20053;-49
2022/06/11 01:28:29;;;;;;;12.88;2.83;;;14.90;99.90;;;;;;5006597;28;20172;-47
2022/06/11 01:31:04;;;;;;;11.43;2.65;;;14.80;99.90;;;;;;4990858;28;20041;-50
2022/06/11 01:33:51;;;;;;;14.15;2.97;;;14.80;99.90;;;;;;4974501;28;20729;-51
2022/06/11 01:36:39;;;;;;;11.43;3.03;;;13.50;99.90;;;;;;5085888;28;20143;-47
2022/06/11 01:39:33;;;;;;;8.90;2.20;;;16.30;99.90;;;;;;5064851;28;20049;-47
2022/06/11 01:42:13;;;;;;;16.00;3.08;;;14.50;99.90;;;;;;5051455;28;20052;-47
2022/06/11 01:44:42;;;;;;;9.07;2.38;;;14.60;99.90;;;;;;5085433;28;20467;-47
2022/06/11 01:47:12;;;;;;;15.30;3.08;;;16.50;99.90;;;;;;5067620;28;20058;-50
2022/06/11 01:49:45;;;;;;;13.38;3.03;;;15.30;99.90;;;;;;5051752;28;20055;-49
2022/06/11 01:52:23;;;;;;;13.55;2.40;;;14.30;99.90;;;;;;5050932;28;20055;-50
2022/06/11 01:55:17;;;;;;;12.38;2.55;;;15.20;99.90;;;;;;5034870;28;20072;-47
2022/06/11 01:57:52;;;;;;;10.90;2.63;;;13.80;99.90;;;;;;5085346;28;20037;-51
2022/06/11 02:00:30;;;;;;;16.38;3.47;;;13.90;99.90;;;;;;5084410;28;20520;-48
2022/06/11 02:03:14;;;;;;;10.68;2.47;;;15.90;99.90;;;;;;5050757;28;20041;-48
2022/06/11 02:05:45;;;;;;;13.05;2.65;;;13.90;99.90;;;;;;5050392;28;20056;-48
2022/06/11 02:08:55;;;;;;;13.68;3.85;;;13.90;99.90;;;;;;5050933;28;20824;-51
2022/06/11 02:11:37;;;;;;;13.40;2.28;;;14.00;99.90;;;;;;5032798;28;20118;-48
2022/06/11 02:14:19;;;;;;;11.23;2.50;;;14.00;99.90;;;;;;5049616;28;20045;-47
2022/06/11 02:16:55;;;;;;;12.18;2.63;;;13.90;99.90;;;;;;5033738;28;20037;-47
2022/06/11 02:19:27;;;;;;;13.68;2.72;;;13.90;99.90;;;;;;5033536;28;20229;-48
2022/06/11 02:21:59;;;;;;;10.35;2.67;;;13.90;99.90;;;;;;5033912;28;20119;-50
2022/06/11 02:24:35;;;;;;;16.08;3.40;;;15.90;99.90;;;;;;5034085;28;20383;-50
2022/06/11 02:27:05;;;;;;;15.48;3.20;;;14.10;99.90;;;;;;5034868;28;20056;-48
2022/06/11 02:29:33;;;;;;;11.35;3.10;;;13.80;99.90;;;;;;5049546;28;20056;-48
2022/06/11 02:32:09;;;;;;;17.42;2.90;;;15.60;99.90;;;;;;5049593;28;20676;-47
2022/06/11 02:34:44;;;;;;;14.48;2.72;;;13.90;99.90;;;;;;5034070;28;20135;-47
2022/06/11 02:37:25;;;;;;;12.02;2.50;;;15.90;99.90;;;;;;5032900;28;20565;-47
2022/06/11 02:39:55;;;;;;;12.60;3.10;;;13.80;99.90;;;;;;5066215;28;20052;-51
2022/06/11 02:42:24;;;;;;;12.38;3.05;;;15.60;99.90;;;;;;5032848;28;20037;-47
2022/06/11 02:44:49;;;;;;;14.13;2.70;;;15.80;99.90;;;;;;5018747;28;20044;-47
2022/06/11 02:47:17;;;;;;;12.02;2.80;;;13.80;99.90;;;;;;5030122;28;20394;-48
2022/06/11 02:49:43;;;;;;;11.80;2.90;;;14.10;99.90;;;;;;5033183;28;20055;-50
2022/06/11 02:52:19;;;;;;;15.02;2.95;;;13.80;99.90;;;;;;5049582;28;20041;-50
2022/06/11 02:54:45;;;;;;;12.13;2.45;;;14.70;99.90;;;;;;5084715;28;20044;-50
2022/06/11 02:57:14;;;;;;;9.85;2.80;;;13.60;99.90;;;;;;5051589;28;20111;-50
2022/06/11 02:59:42;;;;;;;14.15;3.50;;;13.40;99.90;;;;;;5050570;28;20044;-47
2022/06/11 03:02:07;;;;;;;11.32;2.60;;;13.60;99.90;;;;;;5030791;28;20613;-48
2022/06/11 03:04:33;;;;;;;15.73;3.85;;;12.40;99.90;;;;;;5051024;28;20040;-51
2022/06/11 03:07:01;;;;;;;8.55;2.60;;;13.50;99.90;;;;;;5050397;28;20067;-47
2022/06/11 03:09:31;;;;;;;17.65;3.25;;;13.50;99.90;;;;;;5050147;28;20178;-51
2022/06/11 03:11:58;;;;;;;13.95;2.97;;;13.40;99.90;;;;;;5051755;28;20387;-49
2022/06/11 03:14:24;;;;;;;12.35;3.00;;;15.50;99.90;;;;;;5083137;28;20037;-48
2022/06/11 03:16:50;;;;;;;14.63;3.13;;;13.20;99.90;;;;;;5049074;28;20577;-47
2022/06/11 03:19:20;;;;;;;10.98;3.22;;;15.40;99.90;;;;;;5050120;28;20060;-47
2022/06/11 03:21:46;;;;;;;14.50;3.40;;;13.90;99.90;;;;;;5049249;28;20040;-47
2022/06/11 03:24:12;;;;;;;16.13;3.58;;;14.00;99.90;;;;;;5049967;28;20798;-47
2022/06/11 03:26:38;;;;;;;13.18;3.40;;;13.40;99.90;;;;;;5055726;28;20119;-48
2022/06/11 03:29:06;;;;;;;13.95;3.15;;;13.30;99.90;;;;;;5053920;28;20048;-48
2022/06/11 03:31:32;;;;;;;10.50;2.90;;;13.00;99.90;;;;;;5053397;28;20417;-48
2022/06/11 03:33:58;;;;;;;16.77;4.70;;;13.30;99.90;;;;;;5052558;28;20527;-47
2022/06/11 03:36:24;;;;;;;13.18;3.15;;;13.20;99.90;;;;;;5054996;28;20049;-47
2022/06/11 03:38:49;;;;;;;17.80;3.95;;;14.60;99.90;;;;;;5035739;28;20056;-47
2022/06/11 03:41:18;;;;;;;16.67;3.50;;;14.90;99.90;;;;;;5052892;28;20592;-48
2022/06/11 03:43:44;;;;;;;11.77;3.30;;;13.40;99.90;;;;;;5053950;28;20053;-47
2022/06/11 03:46:10;;;;;;;13.43;3.63;;;13.20;99.90;;;;;;5054623;28;20048;-48
2022/06/11 03:48:37;;;;;;;15.30;4.00;;;13.20;99.90;;;;;;5037333;28;20044;-52
2022/06/11 03:51:04;;;;;;;20.15;3.85;;;15.50;99.90;;;;;;5053529;28;20044;-52
2022/06/11 03:53:31;;;;;;;19.77;4.22;;;13.50;99.90;;;;;;5053301;28;20084;-48
2022/06/11 03:55:57;;;;;;;15.25;3.67;;;13.40;99.90;;;;;;5038186;28;20059;-51
2022/06/11 03:58:26;;;;;;;15.75;4.10;;;14.40;99.90;;;;;;5054373;28;20063;-50
2022/06/11 04:03:37;;;;;;;13.20;3.38;;;14.50;99.90;;;;;;5053398;28;20080;-53
2022/06/11 04:06:04;;;;;;;17.40;3.80;;;13.60;99.90;;;;;;5054239;28;21636;-49
2022/06/11 04:08:30;;;;;;;17.55;4.22;;;13.70;99.90;;;;;;5037424;28;20497;-49
2022/06/11 04:10:57;;;;;;;15.98;3.92;;;16.00;99.90;;;;;;5054398;28;20036;-48
2022/06/11 04:13:24;;;;;;;14.57;3.42;;;15.30;99.90;;;;;;5053502;28;20036;-48
2022/06/11 04:15:51;;;;;;;16.05;3.55;;;14.10;99.90;;;;;;5047694;28;20383;-51
2022/06/11 04:18:31;;;;;;;18.10;4.00;;;14.10;99.90;;;;;;5051726;28;20078;-48
2022/06/11 04:20:58;;;;;;;14.32;3.83;;;13.90;99.90;;;;;;5053042;28;20533;-51
2022/06/11 04:23:29;;;;;;;16.58;3.30;;;14.50;99.90;;;;;;5035770;28;20153;-51
2022/06/11 04:25:56;;;;;;;14.25;3.42;;;14.40;99.90;;;;;;5052607;28;20139;-49
2022/06/11 04:28:23;;;;;;;14.95;3.85;;;14.10;99.90;;;;;;5052784;28;20220;-53
2022/06/11 04:30:49;;;;;;;18.92;3.50;;;15.10;99.90;;;;;;5034281;28;20068;-51
2022/06/11 04:33:14;;;;;;;15.40;3.40;;;14.50;99.90;;;;;;5051274;28;20076;-51
2022/06/11 04:35:40;;;;;;;16.02;3.58;;;14.30;99.90;;;;;;5047733;28;20047;-49
2022/06/11 04:38:06;;;;;;;19.13;3.75;;;14.50;99.90;;;;;;5050453;28;20071;-48
2022/06/11 04:40:32;;;;;;;15.25;3.40;;;14.70;99.90;;;;;;5050825;28;20056;-51
2022/06/11 04:42:59;;;;;;;21.55;4.38;;;14.60;99.90;;;;;;5034556;28;20477;-52
2022/06/11 04:45:25;;;;;;;16.20;4.05;;;14.60;99.90;;;;;;5051842;28;20076;-52
2022/06/11 04:47:51;;;;;;;12.40;3.42;;;14.60;99.90;;;;;;5033138;28;20162;-49
2022/06/11 04:50:18;;;;;;;15.57;3.70;;;14.80;99.90;;;;;;5052265;28;20044;-50
2022/06/11 04:52:44;;;;;;;17.80;4.10;;;14.80;99.90;;;;;;5052244;28;20048;-48
2022/06/11 04:55:10;;;;;;;18.63;3.90;;;14.90;99.90;;;;;;5052322;28;20564;-48
2022/06/11 04:57:37;;;;;;;17.70;4.50;;;15.20;99.90;;;;;;5053450;28;20052;-48
2022/06/11 05:00:06;;;;;;;20.15;4.18;;;14.90;99.90;;;;;;5052176;28;20058;-52
2022/06/11 05:02:31;;;;;;;18.52;4.63;;;14.90;99.90;;;;;;5052101;28;20036;-50
2022/06/11 05:04:57;;;;;;;15.27;3.95;;;15.00;99.90;;;;;;5052815;28;20060;-51
2022/06/11 05:07:23;;;;;;;20.95;4.18;;;16.00;99.90;;;;;;5051372;28;20044;-52
2022/06/11 05:09:49;;;;;;;20.45;4.28;;;15.30;99.90;;;;;;5051264;28;20060;-49
2022/06/11 05:12:15;;;;;;;16.50;4.10;;;15.00;99.90;;;;;;5053531;28;20044;-49
2022/06/11 05:14:41;;;;;;;16.65;3.97;;;15.10;99.90;;;;;;5052150;28;20477;-49
2022/06/11 05:17:07;;;;;;;19.67;3.55;;;15.30;99.90;;;;;;5085462;28;20589;-47
2022/06/11 05:19:33;;;;;;;16.90;4.00;;;15.50;99.90;;;;;;5031981;28;20045;-47
2022/06/11 05:21:59;;;;;;;25.98;4.93;;;15.60;99.90;;;;;;5035893;28;20117;-48
2022/06/11 05:24:25;;;;;;;21.23;4.65;;;15.60;99.90;;;;;;5050881;28;20056;-48
2022/06/11 05:26:58;;;;;;;25.80;4.65;;;15.60;99.90;;;;;;5051431;28;20076;-52
2022/06/11 05:29:29;;;;;;;16.23;3.92;;;15.40;99.90;;;;;;5052418;28;20057;-49
2022/06/11 05:31:57;;;;;;;27.10;5.47;;;15.50;99.90;;;;;;5051012;28;21045;-48
2022/06/11 05:34:23;;;;;;;23.77;4.57;;;15.70;99.90;;;;;;5050809;28;20051;-51
2022/06/11 05:36:49;;;;;;;22.00;5.10;;;16.00;99.90;;;;;;5051253;28;20384;-48
2022/06/11 05:39:16;;;;;;;26.33;4.75;;;17.50;99.90;;;;;;5049612;28;20040;-50
2022/06/11 05:41:42;;;;;;;24.60;5.45;;;17.60;99.90;;;;;;5049325;28;20036;-52
2022/06/11 05:44:08;;;;;;;25.10;5.25;;;17.10;99.90;;;;;;5048007;28;20074;-51
2022/06/11 05:46:35;;;;;;;22.08;5.15;;;17.70;99.90;;;;;;5051528;28;20045;-48
2022/06/11 05:49:06;;;;;;;22.63;4.75;;;16.00;99.90;;;;;;5050443;28;20502;-48
2022/06/11 05:51:37;;;;;;;20.10;4.85;;;16.10;99.90;;;;;;5050384;28;20433;-51
2022/06/11 05:54:08;;;;;;;24.58;5.30;;;17.20;99.90;;;;;;5050564;28;20049;-53
2022/06/11 05:56:35;;;;;;;19.83;5.00;;;18.40;99.90;;;;;;5051613;28;20420;-50
2022/06/11 05:59:05;;;;;;;31.33;6.50;;;16.40;99.90;;;;;;5051591;28;20381;-51
2022/06/11 06:01:37;;;;;;;31.00;5.80;;;16.30;99.90;;;;;;5050765;28;20390;-52
2022/06/11 06:04:03;;;;;;;28.15;5.90;;;16.60;99.90;;;;;;5050526;28;20656;-51
2022/06/11 06:06:29;;;;;;;27.33;5.97;;;16.40;99.90;;;;;;5050532;28;20036;-53
2022/06/11 06:08:55;;;;;;;23.55;6.07;;;17.70;99.90;;;;;;5050556;28;20420;-51
2022/06/11 06:11:20;;;;;;;25.88;6.00;;;17.00;99.90;;;;;;5050181;28;20036;-50
2022/06/11 06:13:50;;;;;;;30.48;6.07;;;16.50;99.90;;;;;;5050919;28;20044;-51
2022/06/11 06:16:23;;;;;;;24.83;5.82;;;16.40;99.90;;;;;;5049805;28;20048;-54
2022/06/11 06:18:50;;;;;;;29.10;6.18;;;19.10;99.90;;;;;;5050140;28;20041;-50
2022/06/11 06:21:17;;;;;;;25.85;5.90;;;17.30;99.90;;;;;;5027938;28;20042;-54
2022/06/11 06:23:44;;;;;;;29.73;5.97;;;18.50;99.90;;;;;;5050097;28;20094;-53
2022/06/11 06:26:09;;;;;;;23.77;5.43;;;17.40;99.90;;;;;;5046934;28;20501;-50
2022/06/11 06:28:35;;;;;;;27.40;5.88;;;17.60;99.90;;;;;;5052492;28;20101;-53
2022/06/11 06:31:03;;;;;;;32.28;5.55;;;17.40;99.90;;;;;;5051388;28;20086;-53
2022/06/11 06:33:32;;;;;;;31.60;6.55;;;17.70;99.90;;;;;;5051200;28;20168;-52
2022/06/11 06:35:59;;;;;;;25.88;5.00;;;17.80;99.90;;;;;;5052208;28;20626;-51
2022/06/11 06:38:28;;;;;;;28.63;6.18;;;17.80;99.90;;;;;;5051606;28;20033;-52
2022/06/11 06:40:54;;;;;;;21.73;5.05;;;17.60;99.90;;;;;;5051353;28;20064;-54
2022/06/11 06:43:20;;;;;;;26.05;5.10;;;19.90;99.90;;;;;;5051763;28;20170;-54
2022/06/11 06:45:48;;;;;;;26.52;6.55;;;18.20;99.90;;;;;;5051215;28;21305;-53
2022/06/11 06:48:14;;;;;;;24.67;5.15;;;20.10;99.90;;;;;;5051785;28;20293;-49
2022/06/11 06:50:39;;;;;;;27.77;5.60;;;18.30;99.90;;;;;;5052563;28;20041;-51
2022/06/11 06:53:06;;;;;;;31.80;5.32;;;18.80;99.90;;;;;;5034667;28;20497;-50
2022/06/11 06:55:32;;;;;;;24.88;6.15;;;18.80;99.90;;;;;;5029522;28;20451;-49
2022/06/11 06:57:57;;;;;;;25.45;5.00;;;21.30;99.90;;;;;;5052239;28;20045;-54
2022/06/11 07:00:25;;;;;;;27.25;5.60;;;19.20;99.90;;;;;;5053982;28;20683;-51
2022/06/11 07:02:54;;;;;;;22.92;5.43;;;19.30;99.90;;;;;;5038317;28;21225;-50
2022/06/11 07:05:21;;;;;;;26.02;5.60;;;19.50;99.90;;;;;;5054675;28;20075;-50
2022/06/11 07:07:48;;;;;;;24.30;5.00;;;20.10;99.90;;;;;;5091197;28;20110;-49
2022/06/11 07:10:16;;;;;;;23.95;4.88;;;20.60;99.90;;;;;;5055522;28;20400;-53
2022/06/11 07:12:42;;;;;;;25.88;5.25;;;20.60;99.90;;;;;;5056872;28;20124;-53
2022/06/11 07:15:08;;;;;;;28.85;6.18;;;20.50;99.90;;;;;;5054124;28;20551;-55
2022/06/11 07:17:42;;;;;;;19.73;4.15;;;20.80;99.90;;;;;;5072842;28;20055;-52
2022/06/11 07:20:18;;;;;;;21.98;4.50;;;21.50;99.90;;;;;;5057544;28;20215;-50
2022/06/11 07:22:53;;;;;;;19.85;4.38;;;22.40;99.90;;;;;;5056680;28;20074;-53
2022/06/11 07:25:21;;;;;;;20.85;4.47;;;23.40;99.90;;;;;;5057240;28;20083;-51
2022/06/11 07:27:52;;;;;;;20.10;4.93;;;23.90;99.90;;;;;;5056259;28;20382;-51
2022/06/11 07:30:21;;;;;;;25.77;4.65;;;24.30;99.90;;;;;;5056574;28;20045;-53
2022/06/11 07:32:51;;;;;;;22.27;5.38;;;24.30;99.90;;;;;;5057659;28;20889;-53
2022/06/11 07:35:19;;;;;;;19.15;4.57;;;24.80;99.90;;;;;;5038560;28;20044;-50
2022/06/11 07:37:46;;;;;;;20.75;4.65;;;25.20;99.90;;;;;;5056835;28;20044;-55
2022/06/11 07:40:12;;;;;;;19.83;4.05;;;25.10;99.90;;;;;;5041690;28;20652;-54
2022/06/11 07:42:38;;;;;;;18.73;4.45;;;24.10;99.90;;;;;;5057766;28;20048;-54
2022/06/11 07:45:04;;;;;;;20.17;5.25;;;23.60;99.90;;;;;;5057723;28;20051;-52
2022/06/11 07:50:14;;;;;;;17.50;4.45;;;23.90;99.90;;;;;;5058123;28;20056;-55
2022/06/11 07:52:41;;;;;;;23.13;4.55;;;24.00;99.90;;;;;;5037570;28;20032;-56
2022/06/11 07:55:08;;;;;;;20.55;4.05;;;24.20;99.90;;;;;;5057307;28;20049;-56
2022/06/11 07:57:34;;;;;;;21.50;4.60;;;24.40;99.90;;;;;;5059085;28;20438;-54
2022/06/11 08:00:01;;;;;;;18.33;3.78;;;24.50;99.90;;;;;;5052408;28;20047;-54
2022/06/11 08:02:26;;;;;;;14.98;4.22;;;24.50;99.90;;;;;;5057666;28;20841;-56
2022/06/11 08:04:54;;;;;;;17.45;4.15;;;25.20;99.90;;;;;;5038607;28;20089;-54
2022/06/11 08:07:20;;;;;;;20.58;4.88;;;25.60;99.90;;;;;;5090713;28;20040;-51
2022/06/11 08:09:46;;;;;;;20.20;4.40;;;25.30;99.90;;;;;;5057791;28;20028;-55
2022/06/11 08:12:13;;;;;;;20.13;4.60;;;25.20;99.90;;;;;;5037868;28;20569;-53
2022/06/11 08:14:39;;;;;;;14.88;4.05;;;25.30;99.90;;;;;;5050035;28;20040;-51
2022/06/11 08:17:05;;;;;;;18.40;4.05;;;24.80;99.90;;;;;;5055347;28;20045;-52
2022/06/11 08:19:32;;;;;;;17.85;3.78;;;24.80;99.90;;;;;;5048017;28;20128;-51
2022/06/11 08:21:58;;;;;;;18.48;4.45;;;24.80;99.90;;;;;;5053405;28;20548;-50
2022/06/11 08:24:24;;;;;;;16.13;3.95;;;24.90;99.90;;;;;;5053185;28;20140;-52
2022/06/11 08:26:49;;;;;;;16.88;4.07;;;24.60;99.90;;;;;;5054150;28;20551;-55
2022/06/11 08:29:15;;;;;;;19.63;4.13;;;25.10;99.90;;;;;;5055126;28;20071;-52
2022/06/11 08:31:41;;;;;;;21.50;4.90;;;25.30;99.90;;;;;;5053871;28;20037;-50
2022/06/11 08:34:06;;;;;;;19.33;4.60;;;25.70;99.90;;;;;;5054316;28;20238;-55
2022/06/11 08:36:32;;;;;;;22.02;4.47;;;25.70;99.90;;;;;;5052889;28;20043;-55
2022/06/11 08:38:58;;;;;;;19.42;3.90;;;26.00;99.90;;;;;;5037391;28;20572;-52
2022/06/11 08:41:31;;;;;;;16.73;4.10;;;26.10;99.90;;;;;;5048426;28;20099;-52
2022/06/11 08:44:07;;;;;;;14.30;3.90;;;26.20;99.90;;;;;;5087583;28;20048;-51
2022/06/11 08:46:36;;;;;;;17.15;4.25;;;26.10;99.90;;;;;;5035365;28;20504;-53
2022/06/11 08:49:32;;;;;;;17.98;4.10;;;26.10;99.90;;;;;;5036322;28;20788;-54
2022/06/11 08:52:18;;;;;;;17.05;3.42;;;26.10;99.90;;;;;;5070565;28;20064;-56
2022/06/11 08:54:46;;;;;;;16.55;4.15;;;25.40;99.90;;;;;;5052271;28;20040;-54
2022/06/11 08:57:36;;;;;;;18.63;4.50;;;25.60;99.90;;;;;;5069684;28;20120;-53
2022/06/11 09:00:11;;;;;;;18.10;4.03;;;25.10;99.90;;;;;;5087218;28;20513;-51
2022/06/11 09:02:37;;;;;;;16.48;4.22;;;25.10;99.90;;;;;;5053301;28;20065;-55
2022/06/11 09:05:36;;;;;;;15.13;3.63;;;25.10;99.90;;;;;;5036895;28;20048;-49
2022/06/11 09:08:23;;;;;;;17.63;3.53;;;25.20;99.90;;;;;;5085683;28;20102;-50
2022/06/11 09:11:37;;;;;;;18.85;4.03;;;25.30;99.90;;;;;;5051204;28;20091;-49
2022/06/11 09:14:23;;;;;;;16.80;3.58;;;25.30;99.90;;;;;;5035376;28;20246;-48
2022/06/11 09:16:52;;;;;;;15.45;3.88;;;24.70;99.90;;;;;;5033187;28;20048;-49
2022/06/11 09:19:23;;;;;;;14.38;3.75;;;24.70;99.90;;;;;;5034000;28;20075;-49
2022/06/11 09:22:17;;;;;;;13.98;3.55;;;24.50;99.90;;;;;;5034514;28;20094;-51
2022/06/11 09:25:00;;;;;;;14.05;3.20;;;24.50;99.90;;;;;;5032286;28;20048;-51
2022/06/11 09:27:32;;;;;;;14.63;3.85;;;24.00;99.90;;;;;;5034910;28;20554;-49
2022/06/11 09:30:05;;;;;;;16.42;3.47;;;23.50;99.90;;;;;;5034448;28;20058;-51
2022/06/11 09:32:46;;;;;;;16.27;2.90;;;23.50;99.90;;;;;;5049529;28;20134;-48
2022/06/11 09:35:50;;;;;;;16.00;3.47;;;23.30;99.90;;;;;;5032805;28;20638;-53
2022/06/11 09:38:29;;;;;;;14.40;3.63;;;23.30;99.90;;;;;;5016121;28;20650;-51
2022/06/11 09:41:13;;;;;;;10.10;2.63;;;23.20;99.90;;;;;;5032665;28;20471;-48
2022/06/11 09:43:51;;;;;;;13.50;3.35;;;23.20;99.90;;;;;;5033480;28;20383;-49
2022/06/11 09:46:49;;;;;;;12.30;3.08;;;23.50;99.90;;;;;;5016229;28;20372;-51
2022/06/11 09:49:24;;;;;;;13.52;3.05;;;23.30;99.90;;;;;;5031852;28;20797;-52
2022/06/11 09:52:20;;;;;;;13.45;2.63;;;23.40;99.90;;;;;;5085674;28;20032;-48
2022/06/11 09:54:53;;;;;;;13.82;3.03;;;23.00;99.90;;;;;;5034192;28;20052;-48
2022/06/11 09:57:34;;;;;;;12.82;2.88;;;22.70;99.90;;;;;;5050092;28;20048;-49
2022/06/11 10:00:19;;;;;;;15.68;3.28;;;22.30;99.90;;;;;;5053765;28;20405;-49
2022/06/11 10:03:29;;;;;;;17.20;3.50;;;22.50;99.90;;;;;;5050700;28;20039;-48
2022/06/11 10:05:55;;;;;;;14.18;3.15;;;22.40;99.90;;;;;;5085036;28;20049;-48
2022/06/11 10:08:39;;;;;;;15.38;3.15;;;22.90;99.90;;;;;;5034952;28;20118;-50
2022/06/11 10:11:10;;;;;;;13.52;2.88;;;25.40;99.90;;;;;;5034553;28;20509;-48
2022/06/11 10:13:47;;;;;;;;;;;23.00;99.90;;;;;;5084474;28;20315;-48
2022/06/11 10:16:35;;;;;;;19.08;3.08;;;23.30;99.90;;;;;;5051199;28;19924;-47
2022/06/11 10:19:21;;;;;;;11.85;2.72;;;23.20;99.90;;;;;;5051530;28;20032;-49
2022/06/11 10:22:04;;;;;;;14.30;3.20;;;23.10;99.90;;;;;;5052370;28;20036;-49
2022/06/11 10:24:32;;;;;;;12.10;2.70;;;23.20;99.90;;;;;;5085463;28;20084;-49
2022/06/11 10:27:05;;;;;;;12.40;2.63;;;23.60;99.90;;;;;;5052265;28;20667;-49
2022/06/11 10:29:41;;;;;;;10.30;2.30;;;23.80;99.90;;;;;;5053032;28;20622;-49
2022/06/11 10:32:16;;;;;;;8.55;2.53;;;23.20;99.90;;;;;;5053455;28;20141;-48
2022/06/11 10:34:47;;;;;;;15.68;3.38;;;23.10;99.90;;;;;;5050504;28;20512;-47
2022/06/11 10:37:52;;;;;;;11.85;2.80;;;23.30;99.90;;;;;;5051478;28;20197;-48
2022/06/11 10:40:26;;;;;;;14.55;3.40;;;23.50;99.90;;;;;;5016386;28;20363;-50
2022/06/11 10:42:52;;;;;;;14.45;3.75;;;23.30;99.90;;;;;;5049544;28;20061;-47
2022/06/11 10:45:18;;;;;;;13.77;2.70;;;23.30;99.90;;;;;;5031474;28;20049;-46
2022/06/11 10:47:50;;;;;;;12.52;2.72;;;23.40;99.90;;;;;;5033128;28;20048;-51
2022/06/11 10:50:25;;;;;;;23.00;3.53;;;23.00;99.90;;;;;;5031528;28;20044;-49
2022/06/11 10:53:06;;;;;;;13.63;3.00;;;23.00;99.90;;;;;;5033240;28;20052;-49
2022/06/11 10:55:40;;;;;;;14.05;2.75;;;23.30;99.90;;;;;;5032554;28;20201;-50
2022/06/11 10:58:18;;;;;;;17.33;3.28;;;23.50;99.90;;;;;;5031663;28;20536;-50
2022/06/11 11:00:58;;;;;;;12.60;2.80;;;23.50;99.90;;;;;;5015751;28;20049;-52
2022/06/11 11:03:45;;;;;;;15.18;2.72;;;23.70;99.90;;;;;;5015653;28;20123;-47
2022/06/11 11:06:25;;;;;;;13.73;2.85;;;24.10;99.90;;;;;;5032271;28;20087;-49
2022/06/11 11:09:00;;;;;;;14.98;3.22;;;23.90;99.90;;;;;;5049952;28;20080;-49
2022/06/11 11:11:31;;;;;;;13.00;2.67;;;24.10;99.90;;;;;;5016934;28;20795;-48
2022/06/11 11:14:26;;;;;;;16.85;3.50;;;23.90;99.90;;;;;;5032571;28;20668;-47
2022/06/11 11:16:53;;;;;;;10.35;2.72;;;23.40;99.90;;;;;;5047655;28;21244;-52
2022/06/11 11:19:31;;;;;;;12.70;2.97;;;23.30;99.90;;;;;;5033885;28;20068;-47
2022/06/11 11:22:05;;;;;;;14.48;3.05;;;23.00;99.90;;;;;;5050898;28;20167;-51
2022/06/11 11:24:35;;;;;;;13.50;2.78;;;23.00;99.90;;;;;;5051269;28;20436;-47
2022/06/11 11:27:10;;;;;;;11.35;2.80;;;23.40;99.90;;;;;;5033992;28;20057;-51
2022/06/11 11:29:52;;;;;;;15.13;3.15;;;23.60;99.90;;;;;;5052072;28;20425;-48
2022/06/11 11:32:49;;;;;;;;;;;23.40;99.90;;;;;;5052020;28;20041;-49
2022/06/11 11:35:18;;;;;;;12.07;3.60;;;23.50;99.90;;;;;;4973523;28;19925;-47
2022/06/11 11:37:54;;;;;;;11.70;2.42;;;25.50;99.90;;;;;;4986535;28;20104;-46
2022/06/11 11:40:25;;;;;;;13.32;2.97;;;23.30;99.90;;;;;;4972493;28;20145;-47
2022/06/11 11:42:56;;;;;;;9.77;2.20;;;23.10;99.90;;;;;;4971464;28;20458;-47
2022/06/11 11:45:38;;;;;;;9.15;2.35;;;23.20;99.90;;;;;;4972869;28;20049;-48
2022/06/11 11:48:07;;;;;;;10.38;2.30;;;23.10;99.90;;;;;;4975089;28;20049;-47
2022/06/11 11:50:37;;;;;;;18.27;3.20;;;23.20;99.90;;;;;;4971815;28;20145;-49
2022/06/11 11:53:05;;;;;;;11.25;2.15;;;23.30;99.90;;;;;;4975484;28;20064;-49
2022/06/11 11:55:33;;;;;;;10.45;2.08;;;23.30;99.90;;;;;;4971288;28;20058;-48
2022/06/11 11:58:04;;;;;;;11.50;2.17;;;24.60;99.90;;;;;;4971802;28;20569;-50
2022/06/11 12:00:40;;;;;;;10.23;2.23;;;23.30;99.90;;;;;;4992336;28;20057;-47
2022/06/11 12:03:22;;;;;;;14.18;3.15;;;23.30;99.90;;;;;;4988400;28;20123;-47
2022/06/11 12:05:52;;;;;;;11.50;2.38;;;23.30;99.90;;;;;;4975163;28;20096;-50
2022/06/11 12:08:30;;;;;;;13.68;2.72;;;23.60;99.90;;;;;;4971965;28;20037;-48
2022/06/11 12:11:01;;;;;;;10.25;2.13;;;23.80;99.90;;;;;;5011781;28;20052;-48
2022/06/11 12:13:49;;;;;;;12.15;2.28;;;24.10;99.90;;;;;;5053631;28;20044;-47
2022/06/11 12:16:36;;;;;;;11.07;2.28;;;23.90;99.90;;;;;;5085167;28;20076;-50
2022/06/11 12:19:20;;;;;;;11.25;2.65;;;23.70;99.90;;;;;;5085140;28;20516;-48
2022/06/11 12:22:10;;;;;;;9.45;2.35;;;23.80;99.90;;;;;;5054930;28;20427;-48
2022/06/11 12:24:49;;;;;;;10.07;2.38;;;23.30;99.90;;;;;;5053073;28;20052;-49
2022/06/11 12:27:39;;;;;;;13.60;2.38;;;23.30;99.90;;;;;;5083780;28;20060;-48
2022/06/11 12:30:22;;;;;;;11.75;2.15;;;23.40;99.90;;;;;;5051858;28;20047;-47
2022/06/11 12:32:50;;;;;;;8.13;1.90;;;23.90;99.90;;;;;;5052465;28;20797;-48
2022/06/11 12:35:23;;;;;;;6.43;1.63;;;23.70;99.90;;;;;;5046101;28;20039;-46
2022/06/11 12:38:05;;;;;;;9.45;2.22;;;23.70;99.90;;;;;;5051361;28;20143;-50
2022/06/11 12:41:08;;;;;;;8.05;1.80;;;24.70;99.90;;;;;;5049348;28;20129;-49
2022/06/11 12:43:47;;;;;;;9.82;2.20;;;23.90;99.90;;;;;;5050202;28;20042;-49
2022/06/11 12:46:17;;;;;;;12.60;2.92;;;23.70;99.90;;;;;;5050580;28;20060;-51
2022/06/11 12:48:48;;;;;;;10.25;2.38;;;23.40;99.90;;;;;;5052878;28;20279;-46
2022/06/11 12:51:18;;;;;;;;;;;23.40;99.90;;;;;;5054219;28;20763;-46
2022/06/11 12:54:15;;;;;;;11.05;2.17;;;23.40;99.90;;;;;;5052051;28;19924;-48
2022/06/11 12:57:08;;;;;;;11.77;2.17;;;22.90;99.90;;;;;;5050218;28;20139;-46
2022/06/11 12:59:59;;;;;;;12.65;2.35;;;23.30;99.90;;;;;;5052563;28;21054;-49
2022/06/11 13:02:30;;;;;;;11.82;2.67;;;23.00;99.90;;;;;;5051868;28;20040;-47
2022/06/11 13:05:30;;;;;;;11.57;2.70;;;23.20;99.90;;;;;;5052545;28;20508;-48
2022/06/11 13:08:21;;;;;;;10.10;2.28;;;23.30;99.90;;;;;;5051187;28;20291;-46
2022/06/11 13:11:23;;;;;;;11.65;2.33;;;23.10;99.90;;;;;;5083720;28;20339;-51
2022/06/11 13:13:57;;;;;;;10.95;2.28;;;23.30;99.90;;;;;;5050240;28;20123;-48
2022/06/11 13:17:01;;;;;;;13.13;2.83;;;23.00;99.90;;;;;;5050474;28;20525;-49